Hobart Regional Airport
KHBR : now visible

Airfield :











YOU CAN JOIN US ON...

 
LOGIN :

Register | Disclaimer

   EN    FR    IT 

 









Legend :    VFR   Marginal VFR   IFR   Intensive IFR   Very Intensive IFR
Visi :
Ceiling :
>= 8 km
>= 3000ft
5 to 8 km
1000 to 3000 ft
1500m to 5 km
500 to 1000 ft
800 to 1500m
200 to 500 ft
< 800m
< 200 ft
Symbols :   Thunderstorms  Fog  Heavy snow  Heavy precipitations  Wind > 20 kt







- Airport Elevation : 1563 ft


KHBR - Hobart Regional

CURRENT METAR :
  • 212053Z AUTO 20013KT 10SM CLR 30/21 A2995 RMK AO2 PK WND 20027/1954 SLP122 T03000206 58017

EXPIRED METARs :
  • 211953Z AUTO 19021G27KT 10SM CLR 29/21 A2997 RMK AO2 PK WND 20028/1932 SLP129 T02940206
  • 211853Z AUTO 21021KT 10SM FEW031 29/21 A2998 RMK AO2 PK WND 19031/1822 SLP134 T02890211

Expired Forecast.
No reported NOTAMs for that airfield.



MET'MAP, your aeronautical weather chart ! - Copyright ORBIFLY December 2007 - Disclaimer

ORBIFLY MET'MAP TEAM :

Programming & Development : Alexandra Zaïnal
Concept & Development : Baudouin d'Aumeries
Co-Development & Prog : Marc-Olivier Méhu
Technical & hardware support : Manuel Goepfert

Contact : metmap@orbifly.com




SOURCES & CREDITS :

   NOAA       Earth
Advisory